createdAt,value
2024-03-26T00:00:48.245Z,45.00
2024-03-26T00:03:38.534Z,47.00
2024-03-26T00:06:09.110Z,46.20
2024-03-26T00:08:39.527Z,41.20
2024-03-26T00:11:09.963Z,43.00
2024-03-26T00:13:40.247Z,48.50
2024-03-26T00:16:10.957Z,44.80
2024-03-26T00:18:41.408Z,40.60
2024-03-26T00:21:11.759Z,43.90
2024-03-26T00:23:42.146Z,49.70
2024-03-26T00:26:12.492Z,48.90
2024-03-26T00:28:44.045Z,40.00
2024-03-26T00:31:14.752Z,53.00
2024-03-26T00:33:45.233Z,41.00
2024-03-26T00:36:15.820Z,40.80
2024-03-26T00:38:46.056Z,54.90
2024-03-26T00:41:16.417Z,53.00
2024-03-26T00:43:46.822Z,42.90
2024-03-26T00:46:17.206Z,38.60
2024-03-26T00:48:47.597Z,52.60
2024-03-26T00:51:18.131Z,55.10
2024-03-26T00:53:48.333Z,47.80
2024-03-26T00:56:18.831Z,66.50
2024-03-26T00:58:49.178Z,49.60
2024-03-26T01:01:19.878Z,56.10
2024-03-26T01:03:53.613Z,58.00
2024-03-26T01:06:30.330Z,78.30
2024-03-26T01:09:00.710Z,103.40
2024-03-26T01:11:31.125Z,113.70
2024-03-26T01:14:01.471Z,116.60
2024-03-26T01:16:32.021Z,89.60
2024-03-26T01:19:02.766Z,85.10
2024-03-26T01:21:33.134Z,77.60
2024-03-26T01:24:03.636Z,76.20
2024-03-26T01:26:34.839Z,82.30
2024-03-26T01:29:05.235Z,76.40
2024-03-26T01:31:35.507Z,67.50
2024-03-26T01:34:05.741Z,73.90
2024-03-26T01:36:36.243Z,70.50
2024-03-26T01:39:06.724Z,75.60
2024-03-26T01:41:37.278Z,74.80
2024-03-26T01:44:07.860Z,71.70
2024-03-26T01:46:39.199Z,71.30
2024-03-26T01:49:11.968Z,70.70
2024-03-26T01:51:44.551Z,74.00
2024-03-26T01:54:15.592Z,74.00
2024-03-26T01:59:16.608Z,78.00
2024-03-26T02:04:17.395Z,71.60
2024-03-26T02:06:48.156Z,67.80
2024-03-26T02:09:18.482Z,65.30
2024-03-26T02:11:48.773Z,68.10
2024-03-26T02:14:19.235Z,64.40
2024-03-26T02:16:49.606Z,68.40
2024-03-26T02:19:23.604Z,84.70
2024-03-26T02:21:54.185Z,82.40
2024-03-26T02:24:24.900Z,74.50
2024-03-26T02:26:55.148Z,78.40
2024-03-26T02:29:25.578Z,69.50
2024-03-26T02:31:55.893Z,68.10
2024-03-26T02:34:26.474Z,65.20
2024-03-26T02:36:57.036Z,70.30
2024-03-26T02:39:27.555Z,65.70
2024-03-26T02:41:58.263Z,65.80
2024-03-26T02:44:28.768Z,72.10
2024-03-26T02:46:59.090Z,67.20
2024-03-26T02:49:29.620Z,70.50
2024-03-26T02:51:59.989Z,67.70
2024-03-26T02:54:30.677Z,81.70
2024-03-26T02:57:01.163Z,67.70
2024-03-26T02:59:32.169Z,76.00
2024-03-26T03:04:31.484Z,69.30
2024-03-26T03:07:01.999Z,63.20
2024-03-26T03:09:32.387Z,60.50
2024-03-26T03:12:02.692Z,63.20
2024-03-26T03:14:32.955Z,64.70
2024-03-26T03:17:03.321Z,66.70
2024-03-26T03:19:33.734Z,76.10
2024-03-26T03:22:04.548Z,75.10
2024-03-26T03:24:35.134Z,75.30
2024-03-26T03:27:06.104Z,53.60
2024-03-26T03:29:36.613Z,48.30
2024-03-26T03:32:08.795Z,59.90
2024-03-26T03:34:39.366Z,60.60
2024-03-26T03:37:09.881Z,63.00
2024-03-26T03:39:40.176Z,64.40
2024-03-26T03:42:10.731Z,61.50
2024-03-26T03:44:41.234Z,61.40
2024-03-26T03:47:11.625Z,68.60
2024-03-26T03:49:42.249Z,59.70
2024-03-26T03:52:13.074Z,61.60
2024-03-26T03:54:43.833Z,65.70
2024-03-26T03:57:14.149Z,68.50
2024-03-26T03:59:45.839Z,76.70
2024-03-26T04:02:16.422Z,73.50
2024-03-26T04:04:48.407Z,76.30
2024-03-26T04:07:18.956Z,72.40
2024-03-26T04:09:49.255Z,80.90
2024-03-26T04:12:19.561Z,96.60
2024-03-26T04:14:50.272Z,110.30
2024-03-26T04:17:20.637Z,97.10
2024-03-26T04:19:51.018Z,69.80
2024-03-26T04:22:21.426Z,64.90
2024-03-26T04:24:51.724Z,56.30
2024-03-26T04:27:22.130Z,48.20
2024-03-26T04:29:53.128Z,53.10
2024-03-26T04:32:23.500Z,53.70
2024-03-26T04:34:53.993Z,68.50
2024-03-26T04:37:26.739Z,65.70
2024-03-26T04:39:57.136Z,70.30
2024-03-26T04:42:27.422Z,66.40
2024-03-26T04:44:58.061Z,66.80
2024-03-26T04:47:28.531Z,69.30
2024-03-26T04:49:59.024Z,60.60
2024-03-26T04:52:29.577Z,56.50
2024-03-26T04:55:00.234Z,58.20
2024-03-26T04:57:30.651Z,57.80
2024-03-26T05:00:01.132Z,50.30
2024-03-26T05:02:31.728Z,50.20
2024-03-26T05:05:02.145Z,58.80
2024-03-26T05:07:33.927Z,60.60
2024-03-26T05:10:09.186Z,58.80
2024-03-26T05:12:40.731Z,54.90
2024-03-26T05:15:12.548Z,57.30
2024-03-26T05:17:42.894Z,57.30
2024-03-26T05:20:14.580Z,52.40
2024-03-26T05:22:44.985Z,51.60
2024-03-26T05:25:15.492Z,52.30
2024-03-26T05:27:45.863Z,44.00
2024-03-26T05:30:17.035Z,42.70
2024-03-26T05:32:47.550Z,43.90
2024-03-26T05:35:17.933Z,44.30
2024-03-26T05:37:50.085Z,39.50
2024-03-26T05:40:20.546Z,50.00
2024-03-26T05:42:51.060Z,64.10
2024-03-26T05:45:21.449Z,62.50
2024-03-26T05:47:53.419Z,54.90
2024-03-26T05:50:23.868Z,52.80
2024-03-26T05:52:54.242Z,47.80
2024-03-26T05:55:24.490Z,52.00
2024-03-26T05:57:54.883Z,56.50
2024-03-26T06:00:25.257Z,55.80
2024-03-26T06:02:55.796Z,58.90
2024-03-26T06:05:26.453Z,54.80
2024-03-26T06:07:56.718Z,47.90
2024-03-26T06:10:27.148Z,40.40
2024-03-26T06:12:57.608Z,42.50
2024-03-26T06:15:28.001Z,35.90
2024-03-26T06:17:58.411Z,35.50
2024-03-26T06:20:28.693Z,33.60
2024-03-26T06:22:59.120Z,33.70
2024-03-26T06:25:30.368Z,34.60
2024-03-26T06:28:14.306Z,35.90
2024-03-26T06:30:44.603Z,34.60
2024-03-26T06:33:15.367Z,36.30
2024-03-26T06:35:46.100Z,39.60
2024-03-26T06:38:16.763Z,35.30
2024-03-26T06:40:48.095Z,34.90
2024-03-26T06:43:19.068Z,31.10
2024-03-26T06:48:18.489Z,32.80
2024-03-26T06:50:50.364Z,31.90
2024-03-26T06:53:21.319Z,30.40
2024-03-26T06:55:51.716Z,32.50
2024-03-26T06:58:22.116Z,32.80
2024-03-26T07:00:52.807Z,29.50
2024-03-26T07:03:23.204Z,26.90
2024-03-26T07:05:53.606Z,28.80
2024-03-26T07:08:25.737Z,27.40
2024-03-26T07:10:56.813Z,28.20
2024-03-26T07:15:55.883Z,27.80
2024-03-26T07:18:26.331Z,23.40
2024-03-26T07:20:56.896Z,26.30
2024-03-26T07:23:28.303Z,25.60
2024-03-26T07:25:59.419Z,23.10
2024-03-26T07:30:59.094Z,24.40
2024-03-26T07:33:30.094Z,24.10
2024-03-26T07:36:02.060Z,19.00
2024-03-26T07:38:33.012Z,25.70
2024-03-26T07:41:04.066Z,23.40
2024-03-26T07:43:34.566Z,25.90
2024-03-26T07:46:05.710Z,23.10
2024-03-26T07:51:09.209Z,26.70
2024-03-26T07:53:40.143Z,24.50
2024-03-26T07:56:10.675Z,24.30
2024-03-26T07:58:41.734Z,22.10
2024-03-26T08:01:12.446Z,24.40
2024-03-26T08:03:43.105Z,25.10
2024-03-26T08:06:13.627Z,27.70
2024-03-26T08:08:46.414Z,22.80
2024-03-26T08:11:17.071Z,25.10
2024-03-26T08:13:48.130Z,22.90
2024-03-26T08:16:19.304Z,22.80
2024-03-26T08:18:49.723Z,23.00
2024-03-26T08:21:20.150Z,22.00
2024-03-26T08:23:50.869Z,22.90
2024-03-26T08:26:21.329Z,21.70
2024-03-26T08:28:51.799Z,28.40
2024-03-26T08:31:22.201Z,35.50
2024-03-26T08:33:52.916Z,24.50
2024-03-26T08:36:23.363Z,25.80
2024-03-26T08:38:53.786Z,22.00
2024-03-26T08:41:24.795Z,27.20
2024-03-26T08:46:25.120Z,36.70
2024-03-26T08:48:55.683Z,28.10
2024-03-26T08:51:25.981Z,26.80
2024-03-26T08:53:56.418Z,24.70
2024-03-26T08:56:27.685Z,26.40
2024-03-26T08:58:58.021Z,19.00
2024-03-26T09:01:28.417Z,21.20
2024-03-26T09:03:58.848Z,19.30
2024-03-26T09:06:29.300Z,17.70
2024-03-26T09:08:59.709Z,26.40
2024-03-26T09:11:30.748Z,14.80
2024-03-26T09:16:30.188Z,23.30
2024-03-26T09:19:01.781Z,23.30
2024-03-26T09:21:33.608Z,16.40
2024-03-26T09:24:04.160Z,12.50
2024-03-26T09:26:34.604Z,19.10
2024-03-26T09:29:05.356Z,14.00
2024-03-26T09:31:35.942Z,12.50
2024-03-26T09:34:06.384Z,13.90
2024-03-26T09:36:37.927Z,18.00
2024-03-26T09:39:10.564Z,11.80
2024-03-26T09:41:42.146Z,12.20
2024-03-26T09:44:13.601Z,12.80
2024-03-26T09:46:45.723Z,11.10
2024-03-26T09:49:18.236Z,13.90
2024-03-26T09:51:51.876Z,13.00
2024-03-26T09:54:23.412Z,10.00
2024-03-26T09:56:55.029Z,13.40
2024-03-26T09:59:26.052Z,12.10
2024-03-26T10:04:29.071Z,10.30
2024-03-26T10:06:59.678Z,13.70
2024-03-26T10:09:30.962Z,12.20
2024-03-26T10:12:01.560Z,12.00
2024-03-26T10:14:32.331Z,11.50
2024-03-26T10:19:31.709Z,9.90
2024-03-26T10:22:02.518Z,10.40
2024-03-26T10:24:33.327Z,12.50
2024-03-26T10:27:04.193Z,10.40
2024-03-26T10:29:36.476Z,10.40
2024-03-26T10:32:07.405Z,10.80
2024-03-26T10:34:39.085Z,9.50
2024-03-26T10:37:10.721Z,11.00
2024-03-26T10:39:47.140Z,11.20
2024-03-26T10:42:20.343Z,7.80
2024-03-26T10:44:51.237Z,12.30
2024-03-26T10:47:22.784Z,9.80
2024-03-26T10:49:54.228Z,7.50
2024-03-26T10:52:26.947Z,9.30
2024-03-26T10:54:59.312Z,9.10
2024-03-26T10:57:31.255Z,9.10
2024-03-26T11:00:02.587Z,8.40
2024-03-26T11:02:33.685Z,10.00
2024-03-26T11:07:36.040Z,8.30
2024-03-26T11:10:12.500Z,10.10
2024-03-26T11:12:43.563Z,8.60
2024-03-26T11:17:59.524Z,10.30
2024-03-26T11:20:32.102Z,9.60
2024-03-26T11:23:04.616Z,10.00
2024-03-26T11:25:35.796Z,10.00
2024-03-26T11:28:06.951Z,10.20
2024-03-26T11:30:37.910Z,13.10
2024-03-26T11:35:37.720Z,10.70
2024-03-26T11:38:08.772Z,9.70
2024-03-26T11:40:40.696Z,9.60
2024-03-26T11:43:11.172Z,11.40
2024-03-26T11:45:41.912Z,9.80
2024-03-26T11:48:16.295Z,10.80
2024-03-26T11:50:47.404Z,10.20
2024-03-26T11:53:17.826Z,10.90
2024-03-26T11:55:49.467Z,11.30
2024-03-26T11:58:26.668Z,9.00
2024-03-26T12:00:56.989Z,8.40
2024-03-26T12:03:27.668Z,7.90
2024-03-26T12:08:27.789Z,11.70
2024-03-26T12:10:58.187Z,9.00
2024-03-26T12:13:28.763Z,12.10
2024-03-26T12:15:59.187Z,8.20
2024-03-26T12:18:33.617Z,8.60
2024-03-26T12:21:06.345Z,9.60
2024-03-26T12:23:36.867Z,11.50
2024-03-26T12:26:07.939Z,10.30
2024-03-26T12:28:41.770Z,8.30
2024-03-26T12:31:12.733Z,7.90
2024-03-26T12:36:15.894Z,9.30
2024-03-26T12:41:15.329Z,7.10
2024-03-26T12:43:45.867Z,6.90
2024-03-26T12:46:16.316Z,6.40
2024-03-26T12:48:46.703Z,7.10
2024-03-26T12:51:17.511Z,6.40
2024-03-26T12:53:48.012Z,7.30
2024-03-26T12:56:18.537Z,6.00
2024-03-26T12:58:49.106Z,6.90
2024-03-26T13:01:19.531Z,6.00
2024-03-26T13:03:50.712Z,5.80
2024-03-26T13:06:21.352Z,5.80
2024-03-26T13:08:52.399Z,8.70
2024-03-26T13:11:23.367Z,7.10
2024-03-26T13:16:25.050Z,7.90
2024-03-26T13:18:55.536Z,6.90
2024-03-26T13:21:26.176Z,8.10
2024-03-26T13:23:57.161Z,6.60
2024-03-26T13:26:27.949Z,6.70
2024-03-26T13:28:58.397Z,5.30
2024-03-26T13:31:28.967Z,7.00
2024-03-26T13:33:59.827Z,5.60
2024-03-26T13:38:59.948Z,5.10
2024-03-26T13:41:30.444Z,5.20
2024-03-26T13:44:01.716Z,5.50
2024-03-26T13:46:32.148Z,4.90
2024-03-26T13:49:03.420Z,7.00
2024-03-26T13:51:33.764Z,5.60
2024-03-26T13:54:06.695Z,8.70
2024-03-26T13:56:38.732Z,5.70
2024-03-26T13:59:10.649Z,5.00
2024-03-26T14:01:41.229Z,6.10
2024-03-26T14:04:11.582Z,9.50
2024-03-26T14:06:42.249Z,5.70
2024-03-26T14:09:13.503Z,6.90
2024-03-26T14:11:44.327Z,6.70
2024-03-26T14:14:15.026Z,9.60
2024-03-26T14:16:45.341Z,8.70
2024-03-26T14:19:15.873Z,5.60
2024-03-26T14:21:46.391Z,7.70
2024-03-26T14:24:16.647Z,6.60
2024-03-26T14:26:47.130Z,6.80
2024-03-26T14:29:17.690Z,7.80
2024-03-26T14:31:48.310Z,9.70
2024-03-26T14:34:24.668Z,7.20
2024-03-26T14:36:55.028Z,6.90
2024-03-26T14:39:25.503Z,7.20
2024-03-26T14:41:55.851Z,10.20
2024-03-26T14:44:26.356Z,6.60
2024-03-26T14:46:57.183Z,6.80
2024-03-26T14:49:27.575Z,7.80
2024-03-26T14:51:58.020Z,7.70
2024-03-26T14:54:28.772Z,8.00
2024-03-26T14:59:28.486Z,8.90
2024-03-26T15:01:58.823Z,7.20
2024-03-26T15:04:29.300Z,10.10
2024-03-26T15:06:59.711Z,8.60
2024-03-26T15:09:30.272Z,8.60
2024-03-26T15:12:00.800Z,6.70
2024-03-26T15:14:31.608Z,6.50
2024-03-26T15:17:01.987Z,8.10
2024-03-26T15:27:32.413Z,8.70
2024-03-26T15:30:07.071Z,10.50
2024-03-26T15:33:14.567Z,7.60
2024-03-26T15:36:42.292Z,6.50
2024-03-26T15:39:16.511Z,8.10
2024-03-26T15:42:09.508Z,5.70
2024-03-26T15:44:40.495Z,8.70
2024-03-26T15:47:11.211Z,8.70
2024-03-26T15:49:41.784Z,7.50
2024-03-26T15:52:12.474Z,8.30
2024-03-26T15:55:08.474Z,9.50
2024-03-26T15:57:39.011Z,8.70
2024-03-26T16:00:13.879Z,11.70
2024-03-26T16:05:21.814Z,11.80
2024-03-26T16:06:06.017Z,7.80
2024-03-26T16:08:48.573Z,9.60
2024-03-26T16:11:22.495Z,7.90
2024-03-26T16:13:53.277Z,10.30
2024-03-26T16:16:23.882Z,8.50
2024-03-26T16:18:54.290Z,10.50
2024-03-26T16:21:24.937Z,19.50
2024-03-26T16:23:55.492Z,53.00
2024-03-26T16:26:25.731Z,49.50
2024-03-26T16:28:58.662Z,33.10
2024-03-26T16:31:30.156Z,27.90
2024-03-26T16:34:02.048Z,15.00
2024-03-26T16:37:03.782Z,12.70
2024-03-26T16:39:34.734Z,7.70
2024-03-26T16:42:06.054Z,7.50
2024-03-26T16:45:02.917Z,7.70
2024-03-26T16:47:33.933Z,7.40
2024-03-26T16:50:05.132Z,9.70
2024-03-26T16:52:38.168Z,6.70
2024-03-26T16:55:37.306Z,7.90
2024-03-26T16:58:32.153Z,5.90
2024-03-26T17:01:03.704Z,5.60
2024-03-26T17:03:34.108Z,9.50
2024-03-26T17:06:11.438Z,9.00
2024-03-26T17:08:44.422Z,10.50
2024-03-26T17:11:14.932Z,11.00
2024-03-26T17:13:45.703Z,8.40
2024-03-26T17:16:16.019Z,10.80
2024-03-26T17:18:46.518Z,9.00
2024-03-26T17:21:16.939Z,7.40
2024-03-26T17:24:08.685Z,6.60
2024-03-26T17:26:39.156Z,6.30
2024-03-26T17:29:09.459Z,7.30
2024-03-26T17:31:39.914Z,9.40
2024-03-26T17:34:10.372Z,10.50
2024-03-26T17:36:40.818Z,9.10
2024-03-26T17:39:11.968Z,7.90
2024-03-26T17:41:42.418Z,8.40
2024-03-26T17:44:12.819Z,10.00
2024-03-26T17:46:43.173Z,10.30
2024-03-26T17:49:13.818Z,17.80
2024-03-26T17:51:46.506Z,16.30
2024-03-26T17:54:17.012Z,10.60
2024-03-26T17:56:48.307Z,11.60
2024-03-26T17:59:19.215Z,10.70
2024-03-26T18:01:50.319Z,10.50
2024-03-26T18:04:22.178Z,10.60
2024-03-26T18:06:55.812Z,10.00
2024-03-26T18:09:28.934Z,12.80
2024-03-26T18:12:00.280Z,14.00
2024-03-26T18:14:30.609Z,9.10
2024-03-26T18:17:00.870Z,10.70
2024-03-26T18:19:31.383Z,11.90
2024-03-26T18:22:01.690Z,10.70
2024-03-26T18:24:34.209Z,13.10
2024-03-26T18:27:04.680Z,12.00
2024-03-26T18:29:37.727Z,12.60
2024-03-26T18:32:10.124Z,12.60
2024-03-26T18:34:41.071Z,11.60
2024-03-26T18:37:45.705Z,13.40
2024-03-26T18:40:06.445Z,15.90
2024-03-26T18:42:36.877Z,14.00
2024-03-26T18:45:11.602Z,14.70
2024-03-26T18:47:42.127Z,9.80
2024-03-26T18:50:37.718Z,11.80
2024-03-26T18:53:06.014Z,13.30
2024-03-26T18:55:36.469Z,14.30
2024-03-26T18:58:08.922Z,14.80
2024-03-26T19:00:39.721Z,13.40
2024-03-26T19:03:10.233Z,13.30
2024-03-26T19:05:47.256Z,12.40
2024-03-26T19:08:25.182Z,10.70
2024-03-26T19:11:25.392Z,13.40
2024-03-26T19:13:54.099Z,12.90
2024-03-26T19:16:24.445Z,12.00
2024-03-26T19:18:54.959Z,12.60
2024-03-26T19:21:26.856Z,23.00
2024-03-26T19:23:57.497Z,23.70
2024-03-26T19:26:28.132Z,17.30
2024-03-26T19:28:58.693Z,12.90
2024-03-26T19:31:30.270Z,16.40
2024-03-26T19:34:00.940Z,15.80
2024-03-26T19:36:33.841Z,16.00
2024-03-26T19:39:04.504Z,17.70
2024-03-26T19:41:34.952Z,13.50
2024-03-26T19:44:06.472Z,16.90
2024-03-26T19:46:37.428Z,18.20
2024-03-26T19:49:10.568Z,15.70
2024-03-26T19:51:40.959Z,15.70
2024-03-26T19:54:11.571Z,18.10
2024-03-26T19:56:41.975Z,15.40
2024-03-26T19:59:13.729Z,16.30
2024-03-26T20:01:44.074Z,11.30
2024-03-26T20:04:14.612Z,15.20
2024-03-26T20:06:45.029Z,13.60
2024-03-26T20:09:20.591Z,12.50
2024-03-26T20:11:50.945Z,11.50
2024-03-26T20:14:44.986Z,11.50
2024-03-26T20:17:14.798Z,12.10
2024-03-26T20:19:47.022Z,12.80
2024-03-26T20:22:19.962Z,12.70
2024-03-26T20:24:50.366Z,15.10
2024-03-26T20:27:37.501Z,13.00
2024-03-26T20:30:14.110Z,11.80
2024-03-26T20:32:46.503Z,11.50
2024-03-26T20:35:18.416Z,12.50
2024-03-26T20:37:49.226Z,12.20
2024-03-26T20:40:19.862Z,10.80
2024-03-26T20:42:50.104Z,13.10
2024-03-26T20:45:20.842Z,13.80
2024-03-26T20:47:51.969Z,12.70
2024-03-26T20:50:22.430Z,12.40
2024-03-26T20:52:54.133Z,11.90
2024-03-26T20:55:54.450Z,14.20
2024-03-26T20:58:25.300Z,14.40
2024-03-26T21:00:55.820Z,12.60
2024-03-26T21:03:27.139Z,15.90
2024-03-26T21:06:22.318Z,14.30
2024-03-26T21:08:50.784Z,15.90
2024-03-26T21:11:21.238Z,15.20
2024-03-26T21:13:54.153Z,12.70
2024-03-26T21:16:24.549Z,12.90
2024-03-26T21:18:55.038Z,11.70
2024-03-26T21:21:25.619Z,12.60
2024-03-26T21:23:56.153Z,14.20
2024-03-26T21:26:26.818Z,11.10
2024-03-26T21:28:57.078Z,11.40
2024-03-26T21:31:28.643Z,16.00
2024-03-26T21:33:59.307Z,11.20
2024-03-26T21:36:29.763Z,11.40
2024-03-26T21:39:00.129Z,14.40
2024-03-26T21:41:30.738Z,11.60
2024-03-26T21:44:02.091Z,14.70
2024-03-26T21:46:32.499Z,12.90
2024-03-26T21:49:02.818Z,14.50
2024-03-26T21:51:33.408Z,13.70
2024-03-26T21:54:03.864Z,14.40
2024-03-26T21:56:54.936Z,16.00
2024-03-26T21:59:25.593Z,14.30
2024-03-26T22:01:56.168Z,14.60
2024-03-26T22:04:27.171Z,14.80
2024-03-26T22:06:57.679Z,18.20
2024-03-26T22:09:28.086Z,14.90
2024-03-26T22:11:58.405Z,15.00
2024-03-26T22:14:28.923Z,15.70
2024-03-26T22:16:59.212Z,18.50
2024-03-26T22:19:29.497Z,15.80
2024-03-26T22:21:59.863Z,14.50
2024-03-26T22:24:30.316Z,15.30
2024-03-26T22:27:01.378Z,14.40
2024-03-26T22:32:01.242Z,15.00
2024-03-26T22:34:32.874Z,15.90
2024-03-26T22:37:03.412Z,14.40
2024-03-26T22:39:33.804Z,14.90
2024-03-26T22:42:04.854Z,18.20
2024-03-26T22:47:04.647Z,19.00
2024-03-26T22:49:34.882Z,21.90
2024-03-26T22:52:07.439Z,19.10
2024-03-26T22:54:37.967Z,18.30
2024-03-26T22:57:08.833Z,17.50
2024-03-26T23:02:56.008Z,16.30
2024-03-26T23:05:26.517Z,15.80
2024-03-26T23:07:56.871Z,16.70
2024-03-26T23:10:27.442Z,18.30
2024-03-26T23:12:57.955Z,17.80
2024-03-26T23:15:28.307Z,16.30
2024-03-26T23:17:58.810Z,18.10
2024-03-26T23:20:29.363Z,20.40
2024-03-26T23:23:09.877Z,16.30
2024-03-26T23:25:40.285Z,15.90
2024-03-26T23:28:10.936Z,18.60
2024-03-26T23:30:41.337Z,16.90
2024-03-26T23:33:12.311Z,20.90
2024-03-26T23:35:42.729Z,16.10
2024-03-26T23:38:13.290Z,17.30
2024-03-26T23:40:43.726Z,17.80
2024-03-26T23:43:14.038Z,14.90
2024-03-26T23:45:44.468Z,16.70
2024-03-26T23:48:15.333Z,15.00
2024-03-26T23:50:45.637Z,16.60
2024-03-26T23:53:16.057Z,13.60
2024-03-26T23:55:46.739Z,15.50
2024-03-26T23:58:17.238Z,16.90
